sensor_id;sensor_type;location;lat;lon;timestamp;pressure;altitude;pressure_sealevel;temperature;humidity
4705;BME280;2366;51.332;6.610;2022-08-26T00:01:19;101120.22;;;25.12;53.41
4705;BME280;2366;51.332;6.610;2022-08-26T00:03:44;101120.56;;;25.09;53.70
4705;BME280;2366;51.332;6.610;2022-08-26T00:06:11;101118.88;;;25.08;53.96
4705;BME280;2366;51.332;6.610;2022-08-26T00:08:38;101116.50;;;25.05;53.81
4705;BME280;2366;51.332;6.610;2022-08-26T00:11:04;101128.75;;;25.00;54.51
4705;BME280;2366;51.332;6.610;2022-08-26T00:13:30;101133.53;;;24.98;55.18
4705;BME280;2366;51.332;6.610;2022-08-26T00:15:55;101131.16;;;24.95;55.68
4705;BME280;2366;51.332;6.610;2022-08-26T00:18:20;101125.25;;;24.92;56.03
4705;BME280;2366;51.332;6.610;2022-08-26T00:20:46;101134.41;;;24.91;56.45
4705;BME280;2366;51.332;6.610;2022-08-26T00:23:11;101141.69;;;24.90;56.14
4705;BME280;2366;51.332;6.610;2022-08-26T00:25:37;101143.06;;;24.86;57.05
4705;BME280;2366;51.332;6.610;2022-08-26T00:28:04;101136.81;;;24.86;57.30
4705;BME280;2366;51.332;6.610;2022-08-26T00:30:31;101144.28;;;24.84;57.66
4705;BME280;2366;51.332;6.610;2022-08-26T00:32:59;101140.06;;;24.81;58.21
4705;BME280;2366;51.332;6.610;2022-08-26T00:35:26;101147.53;;;24.79;58.54
4705;BME280;2366;51.332;6.610;2022-08-26T00:37:52;101144.13;;;24.77;58.91
4705;BME280;2366;51.332;6.610;2022-08-26T00:40:21;101158.34;;;24.79;59.28
4705;BME280;2366;51.332;6.610;2022-08-26T00:42:48;101153.28;;;24.76;59.44
4705;BME280;2366;51.332;6.610;2022-08-26T00:45:14;101150.94;;;24.73;59.95
4705;BME280;2366;51.332;6.610;2022-08-26T00:47:49;101156.53;;;24.71;59.93
4705;BME280;2366;51.332;6.610;2022-08-26T00:50:21;101155.69;;;24.71;60.14
4705;BME280;2366;51.332;6.610;2022-08-26T00:52:49;101159.75;;;24.67;60.38
4705;BME280;2366;51.332;6.610;2022-08-26T00:55:39;101152.16;;;24.62;60.82
4705;BME280;2366;51.332;6.610;2022-08-26T00:58:06;101165.53;;;24.64;61.20
4705;BME280;2366;51.332;6.610;2022-08-26T01:00:33;101172.34;;;24.59;61.38
4705;BME280;2366;51.332;6.610;2022-08-26T01:03:00;101173.16;;;24.60;61.21
4705;BME280;2366;51.332;6.610;2022-08-26T01:05:27;101171.66;;;24.57;61.86
4705;BME280;2366;51.332;6.610;2022-08-26T01:07:53;101175.03;;;24.59;61.84
4705;BME280;2366;51.332;6.610;2022-08-26T01:10:27;101176.22;;;24.57;61.82
4705;BME280;2366;51.332;6.610;2022-08-26T01:12:57;101176.56;;;24.54;62.06
4705;BME280;2366;51.332;6.610;2022-08-26T01:15:30;101164.91;;;24.53;62.33
4705;BME280;2366;51.332;6.610;2022-08-26T01:17:57;101171.81;;;24.48;62.68
4705;BME280;2366;51.332;6.610;2022-08-26T01:23:20;101175.75;;;24.37;63.28
4705;BME280;2366;51.332;6.610;2022-08-26T01:25:50;101172.34;;;24.35;63.70
4705;BME280;2366;51.332;6.610;2022-08-26T01:28:22;101182.34;;;24.34;63.76
4705;BME280;2366;51.332;6.610;2022-08-26T01:30:50;101184.38;;;24.32;63.82
4705;BME280;2366;51.332;6.610;2022-08-26T01:33:21;101189.66;;;24.34;64.00
4705;BME280;2366;51.332;6.610;2022-08-26T01:35:48;101186.28;;;24.24;64.23
4705;BME280;2366;51.332;6.610;2022-08-26T01:38:13;101188.97;;;24.24;64.68
4705;BME280;2366;51.332;6.610;2022-08-26T01:40:40;101185.75;;;24.20;64.93
4705;BME280;2366;51.332;6.610;2022-08-26T01:43:09;101191.00;;;24.22;65.23
4705;BME280;2366;51.332;6.610;2022-08-26T01:45:40;101187.31;;;24.14;65.33
4705;BME280;2366;51.332;6.610;2022-08-26T01:48:09;101196.09;;;24.16;65.46
4705;BME280;2366;51.332;6.610;2022-08-26T01:50:37;101198.97;;;24.15;65.60
4705;BME280;2366;51.332;6.610;2022-08-26T01:53:06;101199.13;;;24.13;65.85
4705;BME280;2366;51.332;6.610;2022-08-26T01:55:33;101202.72;;;24.14;65.57
4705;BME280;2366;51.332;6.610;2022-08-26T01:58:04;101203.03;;;24.11;65.98
4705;BME280;2366;51.332;6.610;2022-08-26T02:00:30;101205.91;;;24.09;66.13
4705;BME280;2366;51.332;6.610;2022-08-26T02:02:57;101210.69;;;24.07;66.30
4705;BME280;2366;51.332;6.610;2022-08-26T02:05:46;101210.00;;;24.05;66.48
4705;BME280;2366;51.332;6.610;2022-08-26T02:08:13;101212.03;;;24.03;66.59
4705;BME280;2366;51.332;6.610;2022-08-26T02:10:40;101224.72;;;23.94;67.27
4705;BME280;2366;51.332;6.610;2022-08-26T02:13:07;101223.03;;;23.93;67.42
4705;BME280;2366;51.332;6.610;2022-08-26T02:15:33;101226.25;;;23.97;67.61
4705;BME280;2366;51.332;6.610;2022-08-26T02:17:59;101221.31;;;24.09;67.69
4705;BME280;2366;51.332;6.610;2022-08-26T02:20:27;101230.28;;;24.26;67.41
4705;BME280;2366;51.332;6.610;2022-08-26T02:22:52;101226.53;;;24.35;67.11
4705;BME280;2366;51.332;6.610;2022-08-26T02:25:31;101228.72;;;24.48;66.47
4705;BME280;2366;51.332;6.610;2022-08-26T02:27:59;101233.63;;;24.52;66.55
4705;BME280;2366;51.332;6.610;2022-08-26T02:30:27;101234.16;;;24.56;66.21
4705;BME280;2366;51.332;6.610;2022-08-26T02:32:53;101232.13;;;24.58;66.30
4705;BME280;2366;51.332;6.610;2022-08-26T02:35:22;101236.00;;;24.64;66.08
4705;BME280;2366;51.332;6.610;2022-08-26T02:37:49;101237.69;;;24.65;66.13
4705;BME280;2366;51.332;6.610;2022-08-26T02:40:17;101241.44;;;24.64;66.34
4705;BME280;2366;51.332;6.610;2022-08-26T02:42:42;101237.00;;;24.71;66.15
4705;BME280;2366;51.332;6.610;2022-08-26T02:45:08;101240.38;;;24.73;66.00
4705;BME280;2366;51.332;6.610;2022-08-26T02:47:34;101235.47;;;24.68;66.09
4705;BME280;2366;51.332;6.610;2022-08-26T02:50:01;101242.41;;;24.71;66.37
4705;BME280;2366;51.332;6.610;2022-08-26T02:52:26;101244.09;;;24.72;65.97
4705;BME280;2366;51.332;6.610;2022-08-26T02:54:51;101240.03;;;24.68;66.55
4705;BME280;2366;51.332;6.610;2022-08-26T02:57:17;101242.75;;;24.68;66.97
4705;BME280;2366;51.332;6.610;2022-08-26T02:59:43;101235.81;;;24.65;66.78
4705;BME280;2366;51.332;6.610;2022-08-26T03:02:09;101239.34;;;24.66;66.90
4705;BME280;2366;51.332;6.610;2022-08-26T03:04:36;101241.78;;;24.52;67.59
4705;BME280;2366;51.332;6.610;2022-08-26T03:07:03;101246.66;;;24.57;67.58
4705;BME280;2366;51.332;6.610;2022-08-26T03:09:29;101238.88;;;24.62;67.87
4705;BME280;2366;51.332;6.610;2022-08-26T03:11:55;101245.66;;;24.66;67.51
4705;BME280;2366;51.332;6.610;2022-08-26T03:14:21;101243.41;;;24.70;67.43
4705;BME280;2366;51.332;6.610;2022-08-26T03:16:48;101241.06;;;24.67;67.42
4705;BME280;2366;51.332;6.610;2022-08-26T03:19:17;101243.25;;;24.71;67.31
4705;BME280;2366;51.332;6.610;2022-08-26T03:21:42;101242.25;;;24.72;67.54
4705;BME280;2366;51.332;6.610;2022-08-26T03:24:11;101234.28;;;24.71;67.10
4705;BME280;2366;51.332;6.610;2022-08-26T03:26:37;101243.09;;;24.65;67.28
4705;BME280;2366;51.332;6.610;2022-08-26T03:29:03;101238.38;;;24.58;67.57
4705;BME280;2366;51.332;6.610;2022-08-26T03:31:47;101256.19;;;24.53;68.13
4705;BME280;2366;51.332;6.610;2022-08-26T03:34:14;101247.03;;;24.54;68.20
4705;BME280;2366;51.332;6.610;2022-08-26T03:36:39;101245.97;;;24.63;67.93
4705;BME280;2366;51.332;6.610;2022-08-26T03:39:05;101245.97;;;24.63;67.76
4705;BME280;2366;51.332;6.610;2022-08-26T03:41:32;101250.19;;;24.66;67.87
4705;BME280;2366;51.332;6.610;2022-08-26T03:43:58;101244.97;;;24.72;67.83
4705;BME280;2366;51.332;6.610;2022-08-26T03:46:23;101243.94;;;24.65;67.71
4705;BME280;2366;51.332;6.610;2022-08-26T03:48:49;101245.13;;;24.71;67.73
4705;BME280;2366;51.332;6.610;2022-08-26T03:51:17;101261.03;;;24.66;66.86
4705;BME280;2366;51.332;6.610;2022-08-26T03:53:43;101257.31;;;24.67;67.61
4705;BME280;2366;51.332;6.610;2022-08-26T03:56:09;101256.97;;;24.70;67.34
4705;BME280;2366;51.332;6.610;2022-08-26T03:58:35;101257.69;;;24.64;67.48
4705;BME280;2366;51.332;6.610;2022-08-26T04:01:00;101258.00;;;24.69;67.58
4705;BME280;2366;51.332;6.610;2022-08-26T04:03:26;101259.88;;;24.68;67.26
4705;BME280;2366;51.332;6.610;2022-08-26T04:06:10;101256.66;;;24.65;67.52
4705;BME280;2366;51.332;6.610;2022-08-26T04:08:36;101260.56;;;24.62;67.65
4705;BME280;2366;51.332;6.610;2022-08-26T04:11:02;101259.69;;;24.70;67.54
4705;BME280;2366;51.332;6.610;2022-08-26T04:13:28;101259.53;;;24.63;67.00
4705;BME280;2366;51.332;6.610;2022-08-26T04:15:54;101253.28;;;24.54;67.63
4705;BME280;2366;51.332;6.610;2022-08-26T04:18:19;101255.66;;;24.57;68.11
4705;BME280;2366;51.332;6.610;2022-08-26T04:20:45;101262.78;;;24.50;67.71
4705;BME280;2366;51.332;6.610;2022-08-26T04:23:12;101255.97;;;24.46;67.81
4705;BME280;2366;51.332;6.610;2022-08-26T04:25:38;101257.69;;;24.47;68.17
4705;BME280;2366;51.332;6.610;2022-08-26T04:28:03;101259.38;;;24.56;67.97
4705;BME280;2366;51.332;6.610;2022-08-26T04:30:29;101260.06;;;24.58;67.71
4705;BME280;2366;51.332;6.610;2022-08-26T04:32:54;101258.91;;;24.53;66.93
4705;BME280;2366;51.332;6.610;2022-08-26T04:35:20;101258.34;;;24.41;68.40
4705;BME280;2366;51.332;6.610;2022-08-26T04:37:45;101258.03;;;24.52;68.25
4705;BME280;2366;51.332;6.610;2022-08-26T04:40:11;101260.22;;;24.57;67.08
4705;BME280;2366;51.332;6.610;2022-08-26T04:42:37;101265.47;;;24.58;68.13
4705;BME280;2366;51.332;6.610;2022-08-26T04:45:03;101258.34;;;24.66;67.76
4705;BME280;2366;51.332;6.610;2022-08-26T04:47:28;101269.38;;;24.64;67.61
4705;BME280;2366;51.332;6.610;2022-08-26T04:49:55;101269.03;;;24.59;67.37
4705;BME280;2366;51.332;6.610;2022-08-26T04:52:20;101268.84;;;24.60;67.34
4705;BME280;2366;51.332;6.610;2022-08-26T04:54:49;101270.19;;;24.73;67.16
4705;BME280;2366;51.332;6.610;2022-08-26T04:57:14;101273.22;;;24.70;66.70
4705;BME280;2366;51.332;6.610;2022-08-26T04:59:40;101278.63;;;24.78;67.03
4705;BME280;2366;51.332;6.610;2022-08-26T05:02:06;101277.09;;;24.84;66.83
4705;BME280;2366;51.332;6.610;2022-08-26T05:04:31;101273.06;;;24.79;66.32
4705;BME280;2366;51.332;6.610;2022-08-26T05:06:57;101274.94;;;24.71;65.86
4705;BME280;2366;51.332;6.610;2022-08-26T05:09:22;101274.28;;;24.60;65.56
4705;BME280;2366;51.332;6.610;2022-08-26T05:11:48;101272.59;;;24.59;66.72
4705;BME280;2366;51.332;6.610;2022-08-26T05:14:14;101273.28;;;24.53;66.87
4705;BME280;2366;51.332;6.610;2022-08-26T05:16:40;101275.66;;;24.48;66.87
4705;BME280;2366;51.332;6.610;2022-08-26T05:19:05;101278.34;;;24.56;66.97
4705;BME280;2366;51.332;6.610;2022-08-26T05:21:32;101277.66;;;24.63;66.54
4705;BME280;2366;51.332;6.610;2022-08-26T05:23:58;101278.84;;;24.68;66.30
4705;BME280;2366;51.332;6.610;2022-08-26T05:26:27;101273.06;;;24.79;65.97
4705;BME280;2366;51.332;6.610;2022-08-26T05:28:53;101279.31;;;24.80;65.43
4705;BME280;2366;51.332;6.610;2022-08-26T05:31:23;101274.72;;;24.89;65.23
4705;BME280;2366;51.332;6.610;2022-08-26T05:33:48;101278.78;;;24.85;64.84
4705;BME280;2366;51.332;6.610;2022-08-26T05:36:19;101280.72;;;24.59;64.92
4705;BME280;2366;51.332;6.610;2022-08-26T05:38:45;101283.44;;;24.59;65.28
4705;BME280;2366;51.332;6.610;2022-08-26T05:41:25;101289.72;;;24.52;65.44
4705;BME280;2366;51.332;6.610;2022-08-26T05:43:54;101290.38;;;24.54;65.26
4705;BME280;2366;51.332;6.610;2022-08-26T05:46:20;101290.38;;;24.54;64.72
4705;BME280;2366;51.332;6.610;2022-08-26T05:48:46;101281.56;;;24.60;65.28
4705;BME280;2366;51.332;6.610;2022-08-26T05:51:12;101288.81;;;24.76;64.41
4705;BME280;2366;51.332;6.610;2022-08-26T05:53:39;101293.56;;;24.66;64.21
4705;BME280;2366;51.332;6.610;2022-08-26T05:56:07;101294.59;;;24.73;64.48
4705;BME280;2366;51.332;6.610;2022-08-26T05:58:33;101294.06;;;24.77;64.56
4705;BME280;2366;51.332;6.610;2022-08-26T06:01:00;101293.69;;;24.80;64.45
4705;BME280;2366;51.332;6.610;2022-08-26T06:03:27;101300.31;;;24.86;64.25
4705;BME280;2366;51.332;6.610;2022-08-26T06:05:53;101301.28;;;24.93;63.50
4705;BME280;2366;51.332;6.610;2022-08-26T06:08:18;101299.94;;;24.89;63.76
4705;BME280;2366;51.332;6.610;2022-08-26T06:10:49;101307.09;;;24.82;64.03
4705;BME280;2366;51.332;6.610;2022-08-26T06:13:16;101306.41;;;24.80;63.95
4705;BME280;2366;51.332;6.610;2022-08-26T06:15:47;101297.25;;;24.89;64.07
4705;BME280;2366;51.332;6.610;2022-08-26T06:18:17;101302.63;;;25.06;64.22
4705;BME280;2366;51.332;6.610;2022-08-26T06:20:44;101301.94;;;25.20;63.78
4705;BME280;2366;51.332;6.610;2022-08-26T06:23:11;101297.50;;;25.11;63.64
4705;BME280;2366;51.332;6.610;2022-08-26T06:25:56;101308.22;;;25.04;63.65
4705;BME280;2366;51.332;6.610;2022-08-26T06:28:22;101303.28;;;25.08;63.38
4705;BME280;2366;51.332;6.610;2022-08-26T06:30:49;101304.28;;;25.15;62.81
4705;BME280;2366;51.332;6.610;2022-08-26T06:33:15;101310.19;;;25.18;62.69
4705;BME280;2366;51.332;6.610;2022-08-26T06:35:41;101317.50;;;25.18;62.79
4705;BME280;2366;51.332;6.610;2022-08-26T06:38:07;101314.09;;;25.24;62.27
4705;BME280;2366;51.332;6.610;2022-08-26T06:40:42;101313.53;;;25.37;61.74
4705;BME280;2366;51.332;6.610;2022-08-26T06:43:07;101323.22;;;25.39;61.61
4705;BME280;2366;51.332;6.610;2022-08-26T06:45:34;101316.91;;;25.39;61.20
4705;BME280;2366;51.332;6.610;2022-08-26T06:48:00;101323.81;;;25.50;61.36
4705;BME280;2366;51.332;6.610;2022-08-26T06:50:25;101325.72;;;25.41;61.22
4705;BME280;2366;51.332;6.610;2022-08-26T06:52:50;101324.72;;;25.42;60.25
4705;BME280;2366;51.332;6.610;2022-08-26T06:55:18;101328.53;;;25.16;61.96
4705;BME280;2366;51.332;6.610;2022-08-26T06:57:46;101325.28;;;25.13;62.19
4705;BME280;2366;51.332;6.610;2022-08-26T07:00:12;101317.84;;;25.23;61.82
4705;BME280;2366;51.332;6.610;2022-08-26T07:02:39;101338.66;;;25.31;61.46
4705;BME280;2366;51.332;6.610;2022-08-26T07:05:05;101336.22;;;24.96;61.61
4705;BME280;2366;51.332;6.610;2022-08-26T07:07:30;101327.06;;;24.89;62.76
4705;BME280;2366;51.332;6.610;2022-08-26T07:09:56;101334.13;;;25.07;62.42
4705;BME280;2366;51.332;6.610;2022-08-26T07:12:21;101334.63;;;25.10;62.08
4705;BME280;2366;51.332;6.610;2022-08-26T07:14:47;101327.72;;;24.99;61.96
4705;BME280;2366;51.332;6.610;2022-08-26T07:17:13;101337.88;;;24.97;62.34
4705;BME280;2366;51.332;6.610;2022-08-26T07:19:38;101332.09;;;25.09;61.81
4705;BME280;2366;51.332;6.610;2022-08-26T07:22:05;101338.38;;;25.09;61.69
4705;BME280;2366;51.332;6.610;2022-08-26T07:24:35;101340.56;;;25.14;61.27
4705;BME280;2366;51.332;6.610;2022-08-26T07:27:03;101340.22;;;25.17;60.85
4705;BME280;2366;51.332;6.610;2022-08-26T07:29:29;101339.38;;;25.08;61.09
4705;BME280;2366;51.332;6.610;2022-08-26T07:31:55;101341.63;;;24.96;61.06
4705;BME280;2366;51.332;6.610;2022-08-26T07:34:24;101349.56;;;25.06;61.57
4705;BME280;2366;51.332;6.610;2022-08-26T07:36:49;101353.63;;;25.10;61.35
4705;BME280;2366;51.332;6.610;2022-08-26T07:39:16;101355.13;;;25.13;61.87
4705;BME280;2366;51.332;6.610;2022-08-26T07:41:42;101357.03;;;25.20;60.03
4705;BME280;2366;51.332;6.610;2022-08-26T07:44:11;101353.78;;;25.09;62.02
4705;BME280;2366;51.332;6.610;2022-08-26T07:46:36;101362.41;;;25.29;61.50
4705;BME280;2366;51.332;6.610;2022-08-26T07:49:02;101358.94;;;25.51;60.59
4705;BME280;2366;51.332;6.610;2022-08-26T07:51:27;101355.59;;;25.72;60.11
4705;BME280;2366;51.332;6.610;2022-08-26T07:53:53;101366.81;;;25.69;59.48
4705;BME280;2366;51.332;6.610;2022-08-26T07:56:20;101351.00;;;25.73;59.23
4705;BME280;2366;51.332;6.610;2022-08-26T07:58:47;101365.47;;;25.65;58.58
4705;BME280;2366;51.332;6.610;2022-08-26T08:01:13;101358.84;;;25.68;59.67
4705;BME280;2366;51.332;6.610;2022-08-26T08:03:38;101365.09;;;25.76;58.93
4705;BME280;2366;51.332;6.610;2022-08-26T08:06:05;101374.88;;;25.86;58.43
4705;BME280;2366;51.332;6.610;2022-08-26T08:08:30;101374.19;;;25.83;58.78
4705;BME280;2366;51.332;6.610;2022-08-26T08:10:57;101366.00;;;25.60;58.89
4705;BME280;2366;51.332;6.610;2022-08-26T08:13:23;101369.78;;;25.51;59.24
4705;BME280;2366;51.332;6.610;2022-08-26T08:15:49;101369.34;;;25.39;59.83
4705;BME280;2366;51.332;6.610;2022-08-26T08:18:15;101364.66;;;25.56;59.30
4705;BME280;2366;51.332;6.610;2022-08-26T08:20:40;101372.91;;;25.71;59.07
4705;BME280;2366;51.332;6.610;2022-08-26T08:23:06;101366.88;;;25.92;58.45
4705;BME280;2366;51.332;6.610;2022-08-26T08:25:32;101367.22;;;25.89;57.13
4705;BME280;2366;51.332;6.610;2022-08-26T08:27:58;101381.66;;;25.50;58.04
4705;BME280;2366;51.332;6.610;2022-08-26T08:30:24;101373.34;;;25.52;58.90
4705;BME280;2366;51.332;6.610;2022-08-26T08:32:50;101385.53;;;25.56;58.57
4705;BME280;2366;51.332;6.610;2022-08-26T08:35:17;101380.03;;;25.72;57.42
4705;BME280;2366;51.332;6.610;2022-08-26T08:37:45;101379.66;;;26.07;57.66
4705;BME280;2366;51.332;6.610;2022-08-26T08:40:13;101380.22;;;26.02;56.62
4705;BME280;2366;51.332;6.610;2022-08-26T08:43:02;101383.13;;;26.00;57.04
4705;BME280;2366;51.332;6.610;2022-08-26T08:47:57;101376.34;;;26.19;57.08
4705;BME280;2366;51.332;6.610;2022-08-26T08:50:35;101379.06;;;26.19;56.61
4705;BME280;2366;51.332;6.610;2022-08-26T08:53:27;101372.63;;;26.20;56.37
4705;BME280;2366;51.332;6.610;2022-08-26T08:55:57;101376.75;;;26.54;56.15
4705;BME280;2366;51.332;6.610;2022-08-26T09:01:24;101376.25;;;26.36;56.33
4705;BME280;2366;51.332;6.610;2022-08-26T09:06:58;101374.59;;;26.50;54.98
4705;BME280;2366;51.332;6.610;2022-08-26T09:09:33;101369.06;;;26.66;55.09
4705;BME280;2366;51.332;6.610;2022-08-26T09:12:02;101378.09;;;26.81;55.21
4705;BME280;2366;51.332;6.610;2022-08-26T09:14:29;101380.34;;;26.93;54.81
4705;BME280;2366;51.332;6.610;2022-08-26T09:17:21;101373.41;;;27.05;53.66
4705;BME280;2366;51.332;6.610;2022-08-26T09:19:53;101381.50;;;26.98;54.00
4705;BME280;2366;51.332;6.610;2022-08-26T09:22:33;101379.56;;;27.22;53.79
4705;BME280;2366;51.332;6.610;2022-08-26T09:24:59;101376.19;;;27.35;53.51
4705;BME280;2366;51.332;6.610;2022-08-26T09:27:45;101376.44;;;27.40;53.11
4705;BME280;2366;51.332;6.610;2022-08-26T09:30:31;101378.59;;;27.44;52.75
4705;BME280;2366;51.332;6.610;2022-08-26T09:33:08;101382.44;;;27.20;53.41
4705;BME280;2366;51.332;6.610;2022-08-26T09:35:37;101386.63;;;26.93;53.55
4705;BME280;2366;51.332;6.610;2022-08-26T09:38:23;101382.38;;;26.76;54.75
4705;BME280;2366;51.332;6.610;2022-08-26T09:40:57;101393.41;;;26.59;54.33
4705;BME280;2366;51.332;6.610;2022-08-26T09:43:23;101393.69;;;26.64;54.89
4705;BME280;2366;51.332;6.610;2022-08-26T09:45:53;101396.59;;;26.63;54.75
4705;BME280;2366;51.332;6.610;2022-08-26T09:50:55;101394.00;;;26.70;55.00
4705;BME280;2366;51.332;6.610;2022-08-26T09:53:25;101396.59;;;27.16;54.28
4705;BME280;2366;51.332;6.610;2022-08-26T09:58:38;101403.00;;;27.23;52.26
4705;BME280;2366;51.332;6.610;2022-08-26T10:01:13;101394.00;;;27.37;52.44
4705;BME280;2366;51.332;6.610;2022-08-26T10:03:39;101390.16;;;27.32;51.24
4705;BME280;2366;51.332;6.610;2022-08-26T10:06:12;101381.41;;;27.36;52.41
4705;BME280;2366;51.332;6.610;2022-08-26T10:08:48;101388.22;;;27.92;51.23
4705;BME280;2366;51.332;6.610;2022-08-26T10:11:23;101382.13;;;27.90;49.35
4705;BME280;2366;51.332;6.610;2022-08-26T10:13:54;101386.25;;;27.85;50.18
4705;BME280;2366;51.332;6.610;2022-08-26T10:16:29;101380.13;;;27.83;50.07
4705;BME280;2366;51.332;6.610;2022-08-26T10:21:37;101380.69;;;27.79;49.67
4705;BME280;2366;51.332;6.610;2022-08-26T10:24:06;101385.84;;;27.89;50.56
4705;BME280;2366;51.332;6.610;2022-08-26T10:29:29;101369.34;;;27.75;49.99
4705;BME280;2366;51.332;6.610;2022-08-26T10:32:01;101378.22;;;27.99;50.53
4705;BME280;2366;51.332;6.610;2022-08-26T10:34:30;101380.03;;;27.92;50.30
4705;BME280;2366;51.332;6.610;2022-08-26T10:37:02;101373.75;;;27.91;50.86
4705;BME280;2366;51.332;6.610;2022-08-26T10:39:35;101378.91;;;27.71;51.15
4705;BME280;2366;51.332;6.610;2022-08-26T10:42:13;101385.50;;;27.92;50.95
4705;BME280;2366;51.332;6.610;2022-08-26T10:44:42;101380.19;;;28.05;50.09
4705;BME280;2366;51.332;6.610;2022-08-26T10:47:15;101375.00;;;28.32;50.30
4705;BME280;2366;51.332;6.610;2022-08-26T10:49:42;101378.88;;;28.44;49.94
4705;BME280;2366;51.332;6.610;2022-08-26T10:52:24;101373.97;;;28.33;49.33
4705;BME280;2366;51.332;6.610;2022-08-26T10:55:00;101369.72;;;27.72;50.02
4705;BME280;2366;51.332;6.610;2022-08-26T11:00:12;101368.50;;;28.11;50.64
4705;BME280;2366;51.332;6.610;2022-08-26T11:03:05;101373.53;;;27.93;50.69
4705;BME280;2366;51.332;6.610;2022-08-26T11:05:34;101377.97;;;27.79;50.64
4705;BME280;2366;51.332;6.610;2022-08-26T11:13:14;101377.91;;;27.87;50.48
4705;BME280;2366;51.332;6.610;2022-08-26T11:18:35;101367.28;;;28.14;49.24
4705;BME280;2366;51.332;6.610;2022-08-26T11:21:01;101370.13;;;28.05;48.72
4705;BME280;2366;51.332;6.610;2022-08-26T11:28:45;101367.34;;;28.20;48.39
4705;BME280;2366;51.332;6.610;2022-08-26T11:34:03;101362.38;;;28.74;47.31
4705;BME280;2366;51.332;6.610;2022-08-26T11:39:04;101356.47;;;28.70;48.06
4705;BME280;2366;51.332;6.610;2022-08-26T11:41:38;101357.41;;;28.56;47.83
4705;BME280;2366;51.332;6.610;2022-08-26T11:44:07;101365.31;;;28.72;47.16
4705;BME280;2366;51.332;6.610;2022-08-26T11:46:33;101361.97;;;28.49;47.28
4705;BME280;2366;51.332;6.610;2022-08-26T11:49:04;101360.19;;;28.41;48.52
4705;BME280;2366;51.332;6.610;2022-08-26T11:51:31;101352.63;;;28.64;47.99
4705;BME280;2366;51.332;6.610;2022-08-26T11:54:16;101361.91;;;29.26;46.33
4705;BME280;2366;51.332;6.610;2022-08-26T11:56:44;101347.84;;;29.36;46.26
4705;BME280;2366;51.332;6.610;2022-08-26T11:59:14;101357.34;;;29.40;44.84
4705;BME280;2366;51.332;6.610;2022-08-26T12:01:43;101349.84;;;28.86;46.37
4705;BME280;2366;51.332;6.610;2022-08-26T12:04:24;101357.28;;;28.99;46.32
4705;BME280;2366;51.332;6.610;2022-08-26T12:06:50;101358.69;;;28.88;46.25
4705;BME280;2366;51.332;6.610;2022-08-26T12:09:22;101359.28;;;28.55;47.68
4705;BME280;2366;51.332;6.610;2022-08-26T12:11:48;101350.53;;;28.17;48.45
4705;BME280;2366;51.332;6.610;2022-08-26T12:14:20;101355.25;;;28.30;47.99
4705;BME280;2366;51.332;6.610;2022-08-26T12:16:46;101355.00;;;28.46;47.81
4705;BME280;2366;51.332;6.610;2022-08-26T12:19:24;101357.34;;;28.27;47.72
4705;BME280;2366;51.332;6.610;2022-08-26T12:22:02;101360.34;;;28.11;48.26
4705;BME280;2366;51.332;6.610;2022-08-26T12:24:29;101361.38;;;28.10;48.45
4705;BME280;2366;51.332;6.610;2022-08-26T12:27:20;101359.16;;;27.99;48.56
4705;BME280;2366;51.332;6.610;2022-08-26T12:30:06;101371.22;;;27.90;48.76
4705;BME280;2366;51.332;6.610;2022-08-26T12:32:33;101368.50;;;27.75;50.85
4705;BME280;2366;51.332;6.610;2022-08-26T12:35:00;101366.25;;;27.78;51.30
4705;BME280;2366;51.332;6.610;2022-08-26T12:37:28;101363.34;;;27.65;51.75
4705;BME280;2366;51.332;6.610;2022-08-26T12:40:32;101361.41;;;27.59;52.71
4705;BME280;2366;51.332;6.610;2022-08-26T12:43:01;101361.63;;;27.79;52.37
4705;BME280;2366;51.332;6.610;2022-08-26T12:45:31;101363.88;;;27.75;52.64
4705;BME280;2366;51.332;6.610;2022-08-26T12:48:05;101371.88;;;27.77;52.79
4705;BME280;2366;51.332;6.610;2022-08-26T12:50:33;101376.72;;;27.30;52.57
4705;BME280;2366;51.332;6.610;2022-08-26T12:55:42;101362.81;;;27.10;53.48
4705;BME280;2366;51.332;6.610;2022-08-26T12:58:20;101362.66;;;27.41;53.50
4705;BME280;2366;51.332;6.610;2022-08-26T13:00:53;101370.34;;;27.53;52.92
4705;BME280;2366;51.332;6.610;2022-08-26T13:03:51;101366.56;;;27.54;52.76
4705;BME280;2366;51.332;6.610;2022-08-26T13:08:46;101366.03;;;27.43;53.79
4705;BME280;2366;51.332;6.610;2022-08-26T13:11:21;101366.78;;;27.52;53.63
4705;BME280;2366;51.332;6.610;2022-08-26T13:13:55;101360.00;;;27.63;53.47
4705;BME280;2366;51.332;6.610;2022-08-26T13:16:21;101367.94;;;27.64;53.50
4705;BME280;2366;51.332;6.610;2022-08-26T13:18:50;101360.16;;;27.76;52.97
4705;BME280;2366;51.332;6.610;2022-08-26T13:21:23;101366.56;;;27.54;53.45
4705;BME280;2366;51.332;6.610;2022-08-26T13:23:49;101365.81;;;27.60;53.55
4705;BME280;2366;51.332;6.610;2022-08-26T13:26:16;101361.06;;;27.83;53.07
4705;BME280;2366;51.332;6.610;2022-08-26T13:28:41;101364.78;;;27.97;52.61
4705;BME280;2366;51.332;6.610;2022-08-26T13:31:09;101356.91;;;27.51;53.87
4705;BME280;2366;51.332;6.610;2022-08-26T13:33:35;101359.06;;;27.56;53.60
4705;BME280;2366;51.332;6.610;2022-08-26T13:36:01;101358.88;;;27.42;53.23
4705;BME280;2366;51.332;6.610;2022-08-26T13:38:27;101360.59;;;27.43;54.06
4705;BME280;2366;51.332;6.610;2022-08-26T13:40:52;101362.34;;;27.51;53.35
4705;BME280;2366;51.332;6.610;2022-08-26T13:43:17;101366.94;;;27.21;54.07
4705;BME280;2366;51.332;6.610;2022-08-26T13:45:43;101362.53;;;27.05;54.24
4705;BME280;2366;51.332;6.610;2022-08-26T13:48:09;101357.19;;;27.12;53.88
4705;BME280;2366;51.332;6.610;2022-08-26T13:50:35;101356.19;;;27.28;54.03
4705;BME280;2366;51.332;6.610;2022-08-26T13:53:00;101359.81;;;27.20;54.39
4705;BME280;2366;51.332;6.610;2022-08-26T13:55:26;101368.66;;;27.37;53.93
4705;BME280;2366;51.332;6.610;2022-08-26T13:57:52;101360.78;;;27.27;53.58
4705;BME280;2366;51.332;6.610;2022-08-26T14:00:18;101359.06;;;26.96;54.83
4705;BME280;2366;51.332;6.610;2022-08-26T14:02:44;101361.06;;;27.17;54.18
4705;BME280;2366;51.332;6.610;2022-08-26T14:05:10;101357.47;;;27.17;53.29
4705;BME280;2366;51.332;6.610;2022-08-26T14:07:35;101343.94;;;27.09;54.05